Time;durP1;ratioP1;P1;durP2;ratioP2;P2;SDS_P1;SDS_P2;PMS_P1;PMS_P2;Temp;Humidity;BMP_temperature;BMP_pressure;BME280_temperature;BME280_humidity;BME280_pressure;Samples;Min_cycle;Max_cycle;Signal;HPM_P1;HPM_P2
2023/10/12 00:02:04;;;;;;;13.93;7.38;;;16.40;99.90;;;;;;5030307;28;20045;-55
2023/10/12 00:04:41;;;;;;;15.60;7.43;;;16.30;99.90;;;;;;5030263;28;20587;-53
2023/10/12 00:07:15;;;;;;;14.15;7.63;;;16.30;99.90;;;;;;5030254;28;20476;-52
2023/10/12 00:09:52;;;;;;;15.63;7.50;;;16.30;99.90;;;;;;5029943;28;20431;-51
2023/10/12 00:12:23;;;;;;;13.35;8.02;;;16.40;99.90;;;;;;5029925;28;20061;-49
2023/10/12 00:14:49;;;;;;;17.30;8.20;;;16.30;99.90;;;;;;5029896;28;20044;-55
2023/10/12 00:17:17;;;;;;;19.25;7.72;;;16.30;99.90;;;;;;5030395;28;20026;-53
2023/10/12 00:19:43;;;;;;;13.63;7.03;;;16.40;99.90;;;;;;5029952;28;20075;-56
2023/10/12 00:22:11;;;;;;;15.70;8.07;;;16.40;99.90;;;;;;5030145;28;20457;-53
2023/10/12 00:24:40;;;;;;;16.08;7.65;;;16.40;99.90;;;;;;5028805;28;20483;-56
2023/10/12 00:27:14;;;;;;;16.98;8.02;;;16.40;99.90;;;;;;5029652;28;20500;-47
2023/10/12 00:29:48;;;;;;;15.57;8.38;;;16.40;99.90;;;;;;5029904;28;20032;-53
2023/10/12 00:32:14;;;;;;;14.80;7.68;;;16.50;99.90;;;;;;5029806;28;20496;-48
2023/10/12 00:34:47;;;;;;;15.35;7.55;;;16.50;99.90;;;;;;5029781;28;20033;-52
2023/10/12 00:37:14;;;;;;;17.27;7.60;;;16.50;99.90;;;;;;5029557;28;20021;-51
2023/10/12 00:42:19;;;;;;;17.08;7.78;;;16.50;99.90;;;;;;5032822;28;20559;-57
2023/10/12 00:44:52;;;;;;;15.45;7.80;;;16.50;99.90;;;;;;5033805;28;20077;-53
2023/10/12 00:47:29;;;;;;;15.23;6.50;;;16.60;99.90;;;;;;5032996;28;20040;-53
2023/10/12 00:49:57;;;;;;;14.40;6.60;;;16.60;99.90;;;;;;5033397;28;20033;-56
2023/10/12 00:52:33;;;;;;;15.25;7.30;;;16.60;99.90;;;;;;5033378;28;20031;-50
2023/10/12 00:55:14;;;;;;;12.07;5.72;;;16.60;99.90;;;;;;5033471;28;20057;-55
2023/10/12 00:57:39;;;;;;;13.85;5.90;;;16.60;99.90;;;;;;5033548;28;20030;-58
2023/10/12 01:00:15;;;;;;;15.32;5.80;;;16.60;99.90;;;;;;5033309;28;20032;-60
2023/10/12 01:02:42;;;;;;;11.23;6.55;;;16.60;99.90;;;;;;5032733;28;20497;-53
2023/10/12 01:05:09;;;;;;;8.52;5.30;;;16.60;99.90;;;;;;5032546;28;20496;-54
2023/10/12 01:07:36;;;;;;;16.75;5.57;;;16.60;99.90;;;;;;5033130;28;20024;-55
2023/10/12 01:10:07;;;;;;;14.20;5.60;;;16.70;99.90;;;;;;5033078;28;20029;-55
2023/10/12 01:12:34;;;;;;;10.25;4.65;;;16.70;99.90;;;;;;5033274;28;20037;-51
2023/10/12 01:15:07;;;;;;;12.43;5.30;;;16.70;99.90;;;;;;5032937;28;20375;-55
2023/10/12 01:17:35;;;;;;;8.82;4.88;;;16.70;99.90;;;;;;5033281;28;20048;-53
2023/10/12 01:20:11;;;;;;;12.32;5.38;;;16.70;99.90;;;;;;5030575;28;20037;-53
2023/10/12 01:22:39;;;;;;;10.73;4.72;;;16.70;99.90;;;;;;5032422;28;20128;-54
2023/10/12 01:25:50;;;;;;;15.52;5.65;;;16.70;99.90;;;;;;5032819;28;20488;-51
2023/10/12 01:27:53;;;;;;;12.88;5.38;;;16.80;99.90;;;;;;5025663;28;20039;-57
2023/10/12 01:30:22;;;;;;;10.43;4.78;;;16.80;99.90;;;;;;5033125;28;20080;-53
2023/10/12 01:32:57;;;;;;;10.30;4.82;;;16.80;99.90;;;;;;5032983;28;20052;-50
2023/10/12 01:35:33;;;;;;;10.27;5.25;;;16.80;99.90;;;;;;5032944;28;20083;-48
2023/10/12 01:38:05;;;;;;;12.18;5.47;;;16.80;99.90;;;;;;5032288;28;20029;-49
2023/10/12 01:43:12;;;;;;;9.85;5.03;;;16.80;99.90;;;;;;5032575;28;20125;-50
2023/10/12 01:45:41;;;;;;;10.95;5.38;;;16.80;99.90;;;;;;5032110;28;20422;-51
2023/10/12 01:48:17;;;;;;;9.25;5.20;;;16.80;99.90;;;;;;5032700;28;20079;-50
2023/10/12 01:50:43;;;;;;;11.00;5.38;;;16.80;99.90;;;;;;5032428;28;20064;-52
2023/10/12 01:55:46;;;;;;;14.30;6.07;;;16.90;99.90;;;;;;5032112;28;20427;-50
2023/10/12 01:58:14;;;;;;;10.98;5.13;;;16.90;99.90;;;;;;5032195;28;20026;-56
2023/10/12 02:00:48;;;;;;;11.32;5.63;;;17.00;99.90;;;;;;5031997;28;20025;-51
2023/10/12 02:06:01;;;;;;;12.25;5.25;;;17.00;99.90;;;;;;5032345;28;20034;-53
2023/10/12 02:08:40;;;;;;;12.45;5.32;;;17.00;99.90;;;;;;5032056;28;20022;-48
2023/10/12 02:13:36;;;;;;;9.10;4.15;;;17.00;99.90;;;;;;5031660;28;20024;-50
2023/10/12 02:16:03;;;;;;;10.38;4.65;;;17.00;99.90;;;;;;5032062;28;20037;-51
2023/10/12 02:18:30;;;;;;;8.88;4.65;;;17.00;99.90;;;;;;5032065;28;20017;-51
2023/10/12 02:23:36;;;;;;;9.95;4.88;;;17.00;99.90;;;;;;5031849;28;20045;-50
2023/10/12 02:28:53;;;;;;;12.15;4.53;;;17.00;99.90;;;;;;5031906;28;20031;-57
2023/10/12 02:31:20;;;;;;;7.55;4.18;;;17.00;99.90;;;;;;5031795;28;20050;-56
2023/10/12 02:33:46;;;;;;;12.55;4.40;;;17.00;99.90;;;;;;5031636;28;20118;-56
2023/10/12 02:36:13;;;;;;;12.30;5.13;;;17.00;99.90;;;;;;5031724;28;20449;-57
2023/10/12 02:38:41;;;;;;;14.93;5.50;;;17.00;99.90;;;;;;5031495;28;20123;-57
2023/10/12 02:41:12;;;;;;;17.23;5.18;;;17.00;99.90;;;;;;5031498;28;20030;-57
2023/10/12 02:43:40;;;;;;;9.77;5.53;;;17.00;99.90;;;;;;5031394;28;20271;-54
2023/10/12 02:46:22;;;;;;;11.23;4.38;;;17.00;99.90;;;;;;5031519;28;20029;-54
2023/10/12 02:48:50;;;;;;;8.57;4.40;;;17.00;99.90;;;;;;5031318;28;20022;-56
2023/10/12 02:51:17;;;;;;;6.38;3.90;;;17.10;99.90;;;;;;5031597;28;20389;-51
2023/10/12 02:53:44;;;;;;;10.80;5.07;;;17.10;99.90;;;;;;5031437;28;20113;-57
2023/10/12 02:56:10;;;;;;;10.05;4.63;;;17.10;99.90;;;;;;5030889;28;20378;-60
2023/10/12 02:58:37;;;;;;;9.23;4.53;;;17.10;99.90;;;;;;5031047;28;20018;-54
2023/10/12 03:01:18;;;;;;;10.88;4.97;;;17.10;99.90;;;;;;5030894;28;20026;-56
2023/10/12 03:03:54;;;;;;;14.20;4.50;;;17.10;99.90;;;;;;5030132;28;20036;-52
2023/10/12 03:06:24;;;;;;;12.63;4.90;;;17.10;99.90;;;;;;5030976;28;20040;-53
2023/10/12 03:09:03;;;;;;;9.40;4.70;;;17.10;99.90;;;;;;5031136;28;20060;-58
2023/10/12 03:11:31;;;;;;;9.60;4.13;;;17.10;99.90;;;;;;5030856;28;20017;-48
2023/10/12 03:14:00;;;;;;;9.40;5.25;;;17.00;99.90;;;;;;5030695;28;20037;-55
2023/10/12 03:16:34;;;;;;;8.85;4.32;;;17.00;99.90;;;;;;5030892;28;20009;-56
2023/10/12 03:19:01;;;;;;;10.82;4.43;;;17.00;99.90;;;;;;5030884;28;20447;-58
2023/10/12 03:21:27;;;;;;;12.50;4.70;;;17.10;99.90;;;;;;5030286;28;20022;-56
2023/10/12 03:23:56;;;;;;;10.43;4.78;;;17.00;99.90;;;;;;5030799;28;20044;-55
2023/10/12 03:26:25;;;;;;;15.93;5.10;;;17.00;99.90;;;;;;5030631;28;20033;-60
2023/10/12 03:29:02;;;;;;;13.10;5.13;;;17.00;99.90;;;;;;5030260;28;20037;-55
2023/10/12 03:31:35;;;;;;;15.90;4.93;;;17.00;99.90;;;;;;5030475;28;20048;-50
2023/10/12 03:34:01;;;;;;;10.80;4.40;;;17.10;99.90;;;;;;5030578;28;20026;-52
2023/10/12 03:36:33;;;;;;;12.02;5.00;;;17.10;99.90;;;;;;5030880;28;20774;-56
2023/10/12 03:47:14;;;;;;;12.65;4.82;;;17.10;99.90;;;;;;5030674;28;20041;-56
2023/10/12 03:55:09;;;;;;;9.75;4.38;;;17.10;99.90;;;;;;5017923;28;20262;-54
2023/10/12 04:02:42;;;;;;;15.38;4.97;;;17.10;99.90;;;;;;5030057;28;20029;-49
2023/10/12 04:05:20;;;;;;;10.50;5.05;;;17.10;99.90;;;;;;5030335;28;20026;-47
2023/10/12 04:18:32;;;;;;;11.93;4.78;;;17.10;99.90;;;;;;5033991;28;20176;-47
2023/10/12 04:20:58;;;;;;;13.43;5.40;;;17.10;99.90;;;;;;5034284;28;20055;-55
2023/10/12 04:28:56;;;;;;;10.82;4.75;;;17.10;99.90;;;;;;5033832;28;20037;-52
2023/10/12 04:34:08;;;;;;;17.20;5.38;;;17.10;99.90;;;;;;5033771;28;20484;-57
2023/10/12 04:36:52;;;;;;;13.95;4.97;;;17.10;99.90;;;;;;5033526;28;20029;-54
2023/10/12 04:39:27;;;;;;;15.75;5.05;;;17.10;99.90;;;;;;5033378;28;20104;-54
2023/10/12 04:42:04;;;;;;;13.55;4.95;;;17.10;99.90;;;;;;5033652;28;20554;-56
2023/10/12 04:47:04;;;;;;;13.23;5.55;;;17.10;99.90;;;;;;5033787;28;20018;-50
2023/10/12 04:57:26;;;;;;;9.65;4.55;;;17.00;99.90;;;;;;5033843;28;20022;-53
2023/10/12 05:02:58;;;;;;;10.38;4.22;;;17.00;99.90;;;;;;5033509;28;20125;-53
2023/10/12 05:07:54;;;;;;;11.70;4.78;;;17.00;99.90;;;;;;5032919;28;20033;-55
2023/10/12 05:10:26;;;;;;;;;;;16.90;99.90;;;;;;5033440;28;20033;-52
2023/10/12 05:12:53;;;;;;;10.63;4.82;;;17.00;99.90;;;;;;5032572;28;19909;-54
2023/10/12 05:15:21;;;;;;;14.57;4.50;;;16.90;99.90;;;;;;5032797;28;20028;-53
2023/10/12 05:17:46;;;;;;;9.45;4.15;;;17.00;99.90;;;;;;5032631;28;20034;-56
2023/10/12 05:20:12;;;;;;;15.80;5.03;;;17.00;99.90;;;;;;5032228;28;20032;-48
2023/10/12 05:22:37;;;;;;;16.77;5.05;;;17.00;99.90;;;;;;5032371;28;20522;-56
2023/10/12 05:25:04;;;;;;;11.63;4.32;;;17.00;99.90;;;;;;5032309;28;20036;-53
2023/10/12 05:27:38;;;;;;;11.38;4.25;;;17.00;99.90;;;;;;5031769;28;20075;-53
2023/10/12 05:30:14;;;;;;;7.30;3.92;;;17.00;99.90;;;;;;5032366;28;20068;-56
2023/10/12 05:32:55;;;;;;;14.50;5.05;;;17.00;99.90;;;;;;5032409;28;20018;-55
2023/10/12 05:35:46;;;;;;;15.75;4.60;;;17.00;99.90;;;;;;5032163;28;20515;-54
2023/10/12 05:38:07;;;;;;;8.75;3.85;;;17.00;99.90;;;;;;5032262;28;20036;-54
2023/10/12 05:40:35;;;;;;;10.07;4.15;;;17.00;99.90;;;;;;5031877;28;20033;-56
2023/10/12 05:43:09;;;;;;;15.32;5.05;;;17.10;99.90;;;;;;5031388;28;20456;-56
2023/10/12 05:45:34;;;;;;;10.63;4.20;;;17.00;99.90;;;;;;5032008;28;20400;-55
2023/10/12 05:48:00;;;;;;;9.98;4.00;;;17.00;99.90;;;;;;5032526;28;20027;-53
2023/10/12 05:50:28;;;;;;;12.23;3.83;;;17.10;99.90;;;;;;5032202;28;20025;-53
2023/10/12 05:52:59;;;;;;;12.73;4.20;;;17.10;99.90;;;;;;5032258;28;20056;-50
2023/10/12 05:55:28;;;;;;;7.25;3.35;;;17.10;99.90;;;;;;5032152;28;20263;-54
2023/10/12 05:58:03;;;;;;;10.90;3.83;;;17.10;99.90;;;;;;5031955;28;20029;-53
2023/10/12 06:00:45;;;;;;;11.18;3.63;;;17.10;99.90;;;;;;5031903;28;20037;-54
2023/10/12 06:03:15;;;;;;;14.75;4.07;;;17.10;99.90;;;;;;5031265;28;20128;-53
2023/10/12 06:05:44;;;;;;;14.70;4.20;;;17.10;99.90;;;;;;5031853;28;20037;-56
2023/10/12 06:08:10;;;;;;;11.55;4.03;;;17.20;99.90;;;;;;5031668;28;20481;-54
2023/10/12 06:10:41;;;;;;;8.23;3.45;;;17.20;99.90;;;;;;5031726;28;20455;-49
2023/10/12 06:13:15;;;;;;;7.15;3.38;;;17.10;99.90;;;;;;5031518;28;20037;-51
2023/10/12 06:15:42;;;;;;;9.30;3.25;;;17.10;99.90;;;;;;5031789;28;20025;-45
2023/10/12 06:18:13;;;;;;;10.70;3.13;;;17.10;99.90;;;;;;5030838;28;20512;-47
2023/10/12 06:20:42;;;;;;;7.20;3.15;;;17.20;99.90;;;;;;5031062;28;20025;-50
2023/10/12 06:23:13;;;;;;;10.63;2.90;;;17.20;99.90;;;;;;5030739;28;20029;-45
2023/10/12 06:25:39;;;;;;;10.18;2.63;;;17.20;99.90;;;;;;5031446;28;20459;-45
2023/10/12 06:28:13;;;;;;;3.45;1.88;;;17.20;99.90;;;;;;5031393;28;20049;-46
2023/10/12 06:30:40;;;;;;;6.60;2.17;;;17.20;99.90;;;;;;5030654;28;20053;-45
2023/10/12 06:33:12;;;;;;;7.72;2.30;;;17.20;99.90;;;;;;5031283;28;20108;-50
2023/10/12 06:35:51;;;;;;;3.67;1.80;;;17.20;99.90;;;;;;5031180;28;20037;-53
2023/10/12 06:38:22;;;;;;;9.32;2.30;;;17.20;99.90;;;;;;5030802;28;20100;-53
2023/10/12 06:40:48;;;;;;;6.43;2.13;;;17.20;99.90;;;;;;5030234;28;20033;-55
2023/10/12 06:45:49;;;;;;;5.53;1.67;;;17.20;99.90;;;;;;5029423;28;20022;-48
2023/10/12 06:49:01;;;;;;;4.40;1.67;;;17.20;99.90;;;;;;5023396;28;20033;-52
2023/10/12 06:51:02;;;;;;;7.57;2.20;;;17.20;99.90;;;;;;5013150;28;20116;-53
2023/10/12 06:53:36;;;;;;;3.38;1.83;;;17.30;99.90;;;;;;5030668;28;20064;-53
2023/10/12 07:01:53;;;;;;;2.40;1.30;;;17.30;99.90;;;;;;5029841;28;20075;-57
2023/10/12 07:04:38;;;;;;;4.20;1.40;;;17.40;99.90;;;;;;5013286;28;20057;-55
2023/10/12 07:07:07;;;;;;;2.83;1.50;;;17.40;99.90;;;;;;5029762;28;20041;-53
2023/10/12 07:09:39;;;;;;;4.88;1.77;;;17.30;99.90;;;;;;5029662;28;20032;-47
2023/10/12 07:12:10;;;;;;;4.57;1.95;;;17.30;99.90;;;;;;5030183;28;20120;-55
2023/10/12 07:14:38;;;;;;;4.07;1.92;;;17.40;99.90;;;;;;5030394;28;20025;-56
2023/10/12 07:17:07;;;;;;;5.10;2.20;;;17.40;99.90;;;;;;5030042;28;20488;-55
2023/10/12 07:19:34;;;;;;;6.70;2.42;;;17.40;99.90;;;;;;5030380;28;20033;-56
2023/10/12 07:22:01;;;;;;;3.65;2.08;;;17.50;99.90;;;;;;5029838;28;20171;-47
2023/10/12 07:24:30;;;;;;;4.75;2.30;;;17.40;99.90;;;;;;5029409;28;20037;-57
2023/10/12 07:27:06;;;;;;;7.03;2.53;;;17.50;99.90;;;;;;5029960;28;20025;-55
2023/10/12 07:29:35;;;;;;;5.82;2.63;;;17.50;99.90;;;;;;5030382;28;20025;-50
2023/10/12 07:34:52;;;;;;;8.50;2.40;;;17.50;99.90;;;;;;5029507;28;20033;-54
2023/10/12 07:37:18;;;;;;;5.38;2.55;;;17.50;99.90;;;;;;5028808;28;20055;-51
2023/10/12 07:39:44;;;;;;;3.75;1.70;;;17.50;99.90;;;;;;5027880;28;20040;-49
2023/10/12 07:42:14;;;;;;;5.47;1.90;;;17.50;99.90;;;;;;5028124;28;20025;-54
2023/10/12 07:44:42;;;;;;;6.22;2.05;;;17.60;99.90;;;;;;5028072;28;20075;-55
2023/10/12 07:47:58;;;;;;;5.20;2.10;;;17.60;99.90;;;;;;5028214;28;20083;-49
2023/10/12 07:49:57;;;;;;;5.70;2.05;;;17.60;99.90;;;;;;5025270;28;20041;-51
2023/10/12 07:52:38;;;;;;;7.88;2.25;;;17.60;99.90;;;;;;5027253;28;20013;-50
2023/10/12 07:55:07;;;;;;;5.07;2.15;;;17.60;99.90;;;;;;5029401;28;20194;-48
2023/10/12 07:57:36;;;;;;;8.73;3.08;;;17.60;99.90;;;;;;5024419;28;20039;-54
2023/10/12 08:10:30;;;;;;;8.70;3.40;;;17.70;99.90;;;;;;5030212;28;20029;-53
2023/10/12 08:12:56;;;;;;;10.25;3.47;;;17.70;99.90;;;;;;5029943;28;20038;-56
2023/10/12 08:15:49;;;;;;;10.48;3.92;;;17.70;99.90;;;;;;5029724;28;20022;-51
2023/10/12 08:18:50;;;;;;;12.23;3.55;;;17.80;99.90;;;;;;5021698;28;20071;-54
2023/10/12 08:20:57;;;;;;;7.68;3.10;;;17.70;99.90;;;;;;5024266;28;20160;-52
2023/10/12 08:23:26;;;;;;;10.98;3.60;;;17.80;99.90;;;;;;5028203;28;20071;-54
2023/10/12 08:25:57;;;;;;;8.80;3.70;;;17.80;99.90;;;;;;5029548;28;20536;-51
2023/10/12 08:28:25;;;;;;;7.82;3.50;;;17.80;99.90;;;;;;5022920;28;20052;-53
2023/10/12 08:31:00;;;;;;;9.18;4.13;;;17.80;99.90;;;;;;5028301;28;20051;-54
2023/10/12 08:39:07;;;;;;;14.35;3.28;;;17.90;99.90;;;;;;5021996;28;20034;-57
2023/10/12 08:44:19;;;;;;;11.75;3.83;;;17.90;99.90;;;;;;5027954;28;20064;-58
2023/10/12 08:46:56;;;;;;;10.43;3.45;;;17.90;99.90;;;;;;5029303;28;20041;-50
2023/10/12 08:52:18;;;;;;;12.02;3.40;;;17.90;99.90;;;;;;5030054;28;20030;-48
2023/10/12 08:54:51;;;;;;;11.32;3.58;;;17.90;99.90;;;;;;5022079;28;20021;-49
2023/10/12 08:57:35;;;;;;;10.18;3.50;;;17.90;99.90;;;;;;5029244;28;20025;-53
2023/10/12 09:00:39;;;;;;;9.40;3.40;;;18.00;99.90;;;;;;5029840;28;20065;-52
2023/10/12 09:05:41;;;;;;;6.65;2.72;;;18.10;99.90;;;;;;5033301;28;20033;-54
2023/10/12 09:13:25;;;;;;;10.27;2.88;;;18.20;99.90;;;;;;5033069;28;20036;-53
2023/10/12 09:15:54;;;;;;;8.50;3.03;;;18.20;99.90;;;;;;5033192;28;20025;-56
2023/10/12 09:18:24;;;;;;;10.43;2.60;;;18.20;99.90;;;;;;5033098;28;20023;-46
2023/10/12 09:28:52;;;;;;;7.40;2.40;;;18.40;99.90;;;;;;5032783;28;20033;-54
2023/10/12 09:36:26;;;;;;;9.73;2.00;;;18.60;99.90;;;;;;5032766;28;20021;-53
2023/10/12 09:38:55;;;;;;;6.95;2.40;;;18.80;99.90;;;;;;5032411;28;20029;-52
2023/10/12 09:41:28;;;;;;;3.90;1.85;;;18.80;99.90;;;;;;5031726;28;20013;-50
2023/10/12 09:43:56;;;;;;;5.70;2.22;;;18.90;99.90;;;;;;5031909;28;20041;-52
2023/10/12 09:46:27;;;;;;;5.80;2.03;;;18.90;99.90;;;;;;5032108;28;20075;-52
2023/10/12 09:49:08;;;;;;;5.63;2.05;;;19.00;99.90;;;;;;5032137;28;20037;-57
2023/10/12 09:51:37;;;;;;;7.18;1.60;;;18.90;99.90;;;;;;5032260;28;20101;-57
2023/10/12 09:54:15;;;;;;;5.32;1.92;;;18.80;99.90;;;;;;5032258;28;20057;-45
2023/10/12 09:56:47;;;;;;;5.50;1.70;;;18.80;99.90;;;;;;5032248;28;20459;-46
2023/10/12 09:59:18;;;;;;;4.15;1.58;;;18.80;99.90;;;;;;5031956;28;20029;-49
2023/10/12 10:01:50;;;;;;;6.07;1.70;;;18.80;99.90;;;;;;5032157;28;20499;-46
2023/10/12 10:10:27;;;;;;;4.93;1.10;;;18.70;99.90;;;;;;5031526;28;20083;-56
2023/10/12 10:12:52;;;;;;;6.65;1.70;;;18.80;99.90;;;;;;5031852;28;20034;-50
2023/10/12 10:15:24;;;;;;;8.02;1.52;;;18.90;99.90;;;;;;5031969;28;20034;-51
2023/10/12 10:17:55;;;;;;;4.78;1.58;;;19.00;99.90;;;;;;5031597;28;20424;-49
2023/10/12 10:22:58;;;;;;;5.38;1.42;;;19.10;99.90;;;;;;5031420;28;20171;-50
2023/10/12 10:25:34;;;;;;;5.40;1.70;;;19.20;99.90;;;;;;5030072;28;20033;-54
2023/10/12 10:28:06;;;;;;;6.88;1.98;;;19.30;99.90;;;;;;5031400;28;20032;-51
2023/10/12 10:30:40;;;;;;;6.25;1.58;;;19.30;99.90;;;;;;5028823;28;20046;-49
2023/10/12 10:33:17;;;;;;;11.63;1.90;;;19.50;99.90;;;;;;5029168;28;20030;-56
2023/10/12 10:36:24;;;;;;;8.10;1.75;;;19.50;99.90;;;;;;5031272;28;20045;-52
2023/10/12 10:38:54;;;;;;;7.25;2.03;;;19.70;99.90;;;;;;5023214;28;20033;-51
2023/10/12 10:41:38;;;;;;;5.57;1.60;;;19.80;99.90;;;;;;5031403;28;20102;-47
2023/10/12 10:44:09;;;;;;;5.55;1.60;;;19.80;99.90;;;;;;5027467;28;20029;-51
2023/10/12 10:46:39;;;;;;;5.68;1.50;;;19.90;99.90;;;;;;5031274;28;20018;-53
2023/10/12 10:49:06;;;;;;;8.95;1.45;;;20.00;99.90;;;;;;5031213;28;20048;-50
2023/10/12 10:51:32;;;;;;;3.30;1.10;;;20.00;99.90;;;;;;5031251;28;20104;-58
2023/10/12 10:53:58;;;;;;;4.03;1.35;;;20.20;99.90;;;;;;5031270;28;20116;-47
2023/10/12 10:56:34;;;;;;;4.30;1.17;;;20.10;99.90;;;;;;5030958;28;20117;-54
2023/10/12 10:59:01;;;;;;;4.88;1.33;;;20.10;99.90;;;;;;5031053;28;20105;-52
2023/10/12 11:01:26;;;;;;;4.60;1.13;;;20.10;99.90;;;;;;5031078;28;20100;-55
2023/10/12 11:03:58;;;;;;;2.63;1.30;;;20.20;99.90;;;;;;5030680;28;20547;-57
2023/10/12 11:06:27;;;;;;;5.47;1.25;;;20.40;99.90;;;;;;5030841;28;20022;-51
2023/10/12 11:09:13;;;;;;;3.47;1.13;;;21.00;99.90;;;;;;5030852;28;20075;-54
2023/10/12 11:11:45;;;;;;;2.53;1.27;;;21.40;99.90;;;;;;5030873;28;20091;-50
2023/10/12 11:14:16;;;;;;;4.57;1.27;;;21.50;99.90;;;;;;5031086;28;20281;-54
2023/10/12 11:16:45;;;;;;;4.38;1.20;;;21.40;99.90;;;;;;5030635;28;20475;-50
2023/10/12 11:19:11;;;;;;;3.60;1.08;;;21.40;99.90;;;;;;5030815;28;20030;-50
2023/10/12 11:21:45;;;;;;;8.10;1.42;;;21.20;99.90;;;;;;5030513;28;20036;-50
2023/10/12 11:24:13;;;;;;;5.03;1.40;;;21.00;99.90;;;;;;5030447;28;20033;-50
2023/10/12 11:26:52;;;;;;;5.00;1.00;;;21.00;99.90;;;;;;5024929;28;20022;-54
2023/10/12 11:29:19;;;;;;;4.05;1.00;;;20.90;99.90;;;;;;5030007;28;20049;-48
2023/10/12 11:32:09;;;;;;;4.30;1.02;;;20.80;99.90;;;;;;5030439;28;20095;-49
2023/10/12 11:34:38;;;;;;;4.03;1.20;;;20.70;99.90;;;;;;5033784;28;20029;-54
2023/10/12 11:37:04;;;;;;;5.75;1.42;;;20.40;99.90;;;;;;5047645;28;20052;-47
2023/10/12 11:39:41;;;;;;;2.85;0.98;;;20.60;99.90;;;;;;5029953;28;20539;-46
2023/10/12 11:42:07;;;;;;;4.22;1.02;;;21.00;99.90;;;;;;5029777;28;20021;-51
2023/10/12 11:44:35;;;;;;;6.72;1.27;;;21.10;99.90;;;;;;5030402;28;20037;-47
2023/10/12 11:47:06;;;;;;;1.55;0.80;;;21.20;99.90;;;;;;5030163;28;20623;-47
2023/10/12 11:49:50;;;;;;;1.65;0.65;;;21.10;99.90;;;;;;5030022;28;20349;-53
2023/10/12 11:52:24;;;;;;;6.15;1.17;;;21.70;99.90;;;;;;5022040;28;20108;-50
2023/10/12 11:54:50;;;;;;;1.15;0.80;;;21.80;99.90;;;;;;5030237;28;20025;-46
2023/10/12 11:57:15;;;;;;;3.63;1.52;;;21.60;99.90;;;;;;5023416;28;20034;-50
2023/10/12 11:59:42;;;;;;;3.80;1.17;;;21.30;99.90;;;;;;5030350;28;20029;-54
2023/10/12 12:02:16;;;;;;;1.58;0.80;;;21.40;99.90;;;;;;5028372;28;20034;-53
2023/10/12 12:04:43;;;;;;;4.50;1.10;;;21.60;99.90;;;;;;5030205;28;20076;-47
2023/10/12 12:07:10;;;;;;;6.22;1.30;;;22.00;99.90;;;;;;5029696;28;20124;-52
2023/10/12 12:09:48;;;;;;;3.45;1.00;;;22.10;99.90;;;;;;5030132;28;20029;-53
2023/10/12 12:12:16;;;;;;;3.15;1.05;;;22.10;99.90;;;;;;5029975;28;20087;-52
2023/10/12 12:14:46;;;;;;;2.83;1.10;;;22.00;99.90;;;;;;5029964;28;20032;-51
2023/10/12 12:17:15;;;;;;;3.38;0.90;;;21.80;99.90;;;;;;5030029;28;20030;-46
2023/10/12 12:19:41;;;;;;;2.70;0.98;;;21.50;99.90;;;;;;5029472;28;20041;-51
2023/10/12 12:22:10;;;;;;;2.92;1.02;;;21.20;99.90;;;;;;5029768;28;20028;-50
2023/10/12 12:24:37;;;;;;;3.53;1.20;;;21.00;99.90;;;;;;5029920;28;20034;-47
2023/10/12 12:27:05;;;;;;;6.25;1.05;;;20.80;99.90;;;;;;5029415;28;20424;-48
2023/10/12 12:29:32;;;;;;;5.65;1.25;;;20.80;99.90;;;;;;5029798;28;20073;-46
2023/10/12 12:31:57;;;;;;;3.78;1.08;;;20.80;99.90;;;;;;5028225;28;20132;-48
2023/10/12 12:34:41;;;;;;;4.65;1.25;;;20.80;99.90;;;;;;5029721;28;20137;-49
2023/10/12 12:37:09;;;;;;;7.20;2.20;;;20.90;99.90;;;;;;5027383;28;20135;-53
2023/10/12 12:39:35;;;;;;;3.33;1.00;;;20.90;99.90;;;;;;5033805;28;20028;-51
2023/10/12 12:42:02;;;;;;;5.22;1.45;;;21.00;99.90;;;;;;5033667;28;20263;-52
2023/10/12 12:44:28;;;;;;;2.78;1.13;;;20.90;99.90;;;;;;5033153;28;20025;-54
2023/10/12 12:46:55;;;;;;;5.00;1.20;;;21.00;99.90;;;;;;5033691;28;20026;-51
2023/10/12 12:49:22;;;;;;;3.60;1.02;;;21.00;99.90;;;;;;5033571;28;20505;-55
2023/10/12 12:51:50;;;;;;;4.50;1.15;;;21.00;99.90;;;;;;5033533;28;20017;-53
2023/10/12 12:54:16;;;;;;;2.38;0.60;;;20.90;99.90;;;;;;5033325;28;20025;-54
2023/10/12 12:56:42;;;;;;;5.18;1.45;;;20.70;99.90;;;;;;5033486;28;20103;-52
2023/10/12 12:59:10;;;;;;;2.70;1.00;;;20.60;99.90;;;;;;5033381;28;20095;-45
2023/10/12 13:01:38;;;;;;;2.55;0.75;;;20.50;99.90;;;;;;5032885;28;20507;-47
2023/10/12 13:04:04;;;;;;;2.88;0.77;;;20.20;99.90;;;;;;5032696;28;20049;-51
2023/10/12 13:06:33;;;;;;;1.30;0.70;;;20.20;99.90;;;;;;5033043;28;20029;-47
2023/10/12 13:09:01;;;;;;;2.08;0.75;;;20.10;99.90;;;;;;5032993;28;20022;-45
2023/10/12 13:11:27;;;;;;;1.87;0.87;;;20.10;99.90;;;;;;5033113;28;20022;-46
2023/10/12 13:13:52;;;;;;;6.45;1.40;;;20.00;99.90;;;;;;5032852;28;20091;-44
2023/10/12 13:16:18;;;;;;;3.72;1.00;;;20.10;99.90;;;;;;5033096;28;20014;-46
2023/10/12 13:18:47;;;;;;;4.25;1.50;;;20.10;99.90;;;;;;5032843;28;20034;-54
2023/10/12 13:21:16;;;;;;;7.22;1.15;;;20.20;99.90;;;;;;5032743;28;20326;-48
2023/10/12 13:23:45;;;;;;;1.92;0.80;;;20.10;99.90;;;;;;5015824;28;20038;-58
2023/10/12 13:26:13;;;;;;;2.92;1.05;;;20.20;99.90;;;;;;5012681;28;20397;-57
2023/10/12 13:28:41;;;;;;;2.60;1.35;;;20.30;99.90;;;;;;5029574;28;20115;-50
2023/10/12 13:31:10;;;;;;;2.28;0.73;;;20.30;99.90;;;;;;5037253;28;20497;-56
2023/10/12 13:33:37;;;;;;;2.60;1.08;;;20.40;99.90;;;;;;5012725;28;20056;-52
2023/10/12 13:36:08;;;;;;;4.40;0.90;;;20.30;99.90;;;;;;5030482;28;20033;-53
2023/10/12 13:38:36;;;;;;;2.33;0.80;;;20.30;99.90;;;;;;5029393;28;20080;-54
2023/10/12 13:41:02;;;;;;;3.90;0.82;;;20.30;99.90;;;;;;5027471;28;20036;-55
2023/10/12 13:43:30;;;;;;;7.55;1.25;;;20.20;99.90;;;;;;5037420;28;20049;-53
2023/10/12 13:45:57;;;;;;;2.10;0.60;;;20.20;99.90;;;;;;5027213;28;20017;-52
2023/10/12 13:48:27;;;;;;;2.33;0.90;;;20.10;99.90;;;;;;5027077;28;20058;-50
2023/10/12 13:50:53;;;;;;;2.25;0.60;;;20.10;99.90;;;;;;5022002;28;20381;-50
2023/10/12 13:53:19;;;;;;;2.55;0.70;;;20.10;99.90;;;;;;5025376;28;20392;-48
2023/10/12 13:55:47;;;;;;;2.97;0.85;;;20.00;99.90;;;;;;5029520;28;20036;-51
2023/10/12 13:58:14;;;;;;;1.42;0.57;;;19.90;99.90;;;;;;5031826;28;20060;-42
2023/10/12 14:00:40;;;;;;;3.20;0.57;;;19.90;99.90;;;;;;5031437;28;20124;-44
2023/10/12 14:03:17;;;;;;;3.40;0.85;;;19.90;99.90;;;;;;5031638;28;20118;-53
2023/10/12 14:05:43;;;;;;;1.65;0.57;;;19.70;99.90;;;;;;5026902;28;20128;-52
2023/10/12 14:08:10;;;;;;;2.67;0.95;;;19.70;99.90;;;;;;5031643;28;20113;-51
2023/10/12 14:10:44;;;;;;;1.23;0.40;;;19.70;99.90;;;;;;5032152;28;20084;-46
2023/10/12 14:13:12;;;;;;;2.55;0.73;;;19.70;99.90;;;;;;5029786;28;20029;-53
2023/10/12 14:15:38;;;;;;;2.90;0.77;;;19.60;99.90;;;;;;5032024;28;20025;-54
2023/10/12 14:18:05;;;;;;;5.05;1.10;;;19.60;99.90;;;;;;5032168;28;20396;-49
2023/10/12 14:20:33;;;;;;;0.95;0.50;;;19.60;99.90;;;;;;5030510;28;20084;-52
2023/10/12 14:23:05;;;;;;;6.15;1.67;;;19.50;99.90;;;;;;5025736;28;20499;-51
2023/10/12 14:25:35;;;;;;;1.30;0.50;;;19.40;99.90;;;;;;5023647;28;20132;-55
2023/10/12 14:28:03;;;;;;;4.10;0.60;;;19.20;99.90;;;;;;5051719;28;20035;-51
2023/10/12 14:30:29;;;;;;;1.70;0.70;;;19.20;99.90;;;;;;5027458;28;20029;-50
2023/10/12 14:33:02;;;;;;;2.53;1.00;;;19.10;99.90;;;;;;5031001;28;20515;-51
2023/10/12 14:35:29;;;;;;;0.88;0.40;;;19.10;99.90;;;;;;5031217;28;20116;-52
2023/10/12 14:37:57;;;;;;;0.70;0.50;;;19.00;99.90;;;;;;5031275;28;20443;-51
2023/10/12 14:40:33;;;;;;;2.88;0.80;;;19.00;99.90;;;;;;5031431;28;20029;-48
2023/10/12 14:43:06;;;;;;;1.80;0.75;;;19.00;99.90;;;;;;5027129;28;20040;-52
2023/10/12 14:45:36;;;;;;;1.92;0.57;;;19.00;99.90;;;;;;5030772;28;20057;-47
2023/10/12 14:48:09;;;;;;;3.33;1.00;;;19.00;99.90;;;;;;5020172;28;20037;-47
2023/10/12 14:50:38;;;;;;;4.55;0.93;;;19.10;99.90;;;;;;5029714;28;20025;-53
2023/10/12 14:53:09;;;;;;;;;;;19.10;99.90;;;;;;5026527;28;20041;-52
2023/10/12 14:55:35;;;;;;;1.55;0.40;;;19.10;99.90;;;;;;5031328;28;19905;-52
2023/10/12 14:58:02;;;;;;;3.15;0.60;;;19.10;99.90;;;;;;5031078;28;20052;-55
2023/10/12 15:00:28;;;;;;;0.88;0.57;;;19.20;99.90;;;;;;5030398;28;20032;-51
2023/10/12 15:02:57;;;;;;;1.48;0.60;;;19.10;99.90;;;;;;5030811;28;20022;-49
2023/10/12 15:05:27;;;;;;;1.40;0.50;;;19.20;99.90;;;;;;5030975;28;20041;-49
2023/10/12 15:07:55;;;;;;;1.38;0.50;;;19.10;99.90;;;;;;5030791;28;20022;-54
2023/10/12 15:10:21;;;;;;;1.38;0.70;;;19.00;99.90;;;;;;5030712;28;20032;-52
2023/10/12 15:12:48;;;;;;;2.05;0.88;;;18.90;99.90;;;;;;5030598;28;20132;-53
2023/10/12 15:15:27;;;;;;;1.65;0.57;;;18.80;99.90;;;;;;5031059;28;20034;-52